Date,TemperatureHighF,TemperatureAvgF,TemperatureLowF,DewpointHighF,DewpointAvgF,DewpointLowF,HumidityHigh,HumidityAvg,HumidityLow,PressureMaxIn,PressureMinIn,WindSpeedMaxMPH,WindSpeedAvgMPH,GustSpeedMaxMPH,PrecipitationSumIn
2013-1-1,33,26,20,17,10,5,60,50,41,30.24,30.05,20,8,28,0.00
2013-1-2,34,25,18,6,1,-3,50,36,23,30.33,30.22,13,7,20,0.00
2013-1-3,49,37,24,15,5,-5,34,26,20,30.29,29.98,18,6,27,0.00
2013-1-4,47,41,31,13,6,0,41,24,17,29.99,29.86,19,10,28,0.00
2013-1-5,43,35,30,12,10,5,40,35,23,30.12,29.95,22,12,26,0.00
2013-1-6,45,40,36,21,14,5,54,35,19,29.95,29.69,24,16,41,0.00
2013-1-7,36,34,32,18,14,11,57,44,39,29.77,29.49,30,20,42,0.00
2013-1-8,42,37,33,22,16,12,54,43,32,29.89,29.58,30,17,41,0.00
2013-1-9,48,44,38,24,21,17,54,41,30,29.89,29.47,33,21,49,0.02
2013-1-10,47,35,15,27,21,10,83,59,29,29.47,29.24,18,6,25,0.11
2013-1-11,15,9,4,10,3,-2,82,76,69,30.18,29.45,5,0,6,0.09
2013-1-12,16,7,2,6,0,-4,76,72,60,30.25,30.16,4,1,7,0.00
2013-1-13,16,8,1,1,-3,-7,75,60,45,30.32,30.24,12,4,20,0.00
2013-1-14,17,12,7,0,-5,-9,55,47,41,30.27,30.06,26,17,39,0.00
2013-1-15,27,21,13,10,5,-3,56,49,46,30.27,30.15,27,23,41,0.00
2013-1-16,41,34,25,14,11,8,49,39,32,30.26,30.17,26,17,39,0.00
2013-1-17,47,42,35,15,13,12,40,31,25,30.25,29.96,25,18,32,0.00
2013-1-18,47,42,38,14,12,10,32,29,23,29.96,29.70,29,21,52,0.00
2013-1-19,44,40,36,12,10,6,32,28,21,30.07,29.88,27,19,37,0.00
2013-1-20,44,29,21,18,14,10,77,57,29,30.26,30.00,17,4,25,0.00
2013-1-21,50,45,40,18,11,7,36,26,20,30.14,29.78,30,16,41,0.00
2013-1-22,50,43,38,11,9,6,29,24,17,29.91,29.78,31,20,48,0.00
2013-1-23,50,48,45,13,9,6,24,21,17,29.90,29.70,24,18,34,0.00
2013-1-24,46,43,40,25,23,21,49,45,40,29.91,29.67,25,19,37,0.00
2013-1-25,46,43,40,27,24,20,51,48,45,29.92,29.72,27,19,41,0.00
2013-1-26,50,46,43,29,27,26,52,47,40,29.75,29.44,19,10,35,0.00
2013-1-27,46,30,22,28,24,18,92,79,45,29.72,29.44,10,1,14,0.25
2013-1-28,31,25,19,19,11,4,85,57,39,29.80,29.68,17,6,34,0.00
2013-1-29,28,20,10,13,7,4,75,57,44,30.08,29.65,18,6,29,0.00
2013-1-30,37,32,23,26,19,6,85,58,44,29.93,29.79,16,9,22,0.00
2013-1-31,40,35,20,25,22,15,86,58,47,29.98,29.86,21,10,29,0.00
2013-2-1,42,38,33,27,19,14,75,48,35,30.08,29.83,17,11,23,0.00
2013-2-2,40,37,34,21,18,14,48,45,40,30.19,30.06,29,18,44,0.00
2013-2-3,46,40,34,18,16,13,50,38,30,30.05,29.77,22,16,33,0.00
2013-2-4,41,38,35,21,18,15,48,44,41,29.78,29.67,23,18,32,0.00
2013-2-5,44,41,38,24,22,19,54,46,40,29.80,29.56,21,15,33,0.00
2013-2-6,42,37,32,21,16,11,60,42,31,29.93,29.58,19,10,31,0.00
2013-2-7,40,36,30,14,10,7,48,36,27,29.95,29.76,20,14,29,0.00
2013-2-8,45,34,28,17,12,6,55,39,27,29.80,29.71,11,2,15,0.00
2013-2-9,39,30,24,24,18,14,85,64,43,29.84,29.64,6,1,8,0.08
2013-2-10,26,22,17,20,9,-2,85,58,35,30.10,29.84,19,5,23,0.07
2013-2-11,30,24,16,10,4,-3,47,41,35,30.09,29.94,21,14,28,0.00
2013-2-12,38,31,22,18,12,5,49,44,38,30.03,29.84,26,19,40,0.00
2013-2-13,43,36,32,23,19,16,67,49,37,29.94,29.75,24,12,35,0.00
2013-2-14,34,24,19,22,18,15,85,77,51,30.30,29.94,9,1,16,0.34
2013-2-15,41,35,27,20,17,14,66,48,38,30.35,30.06,21,12,29,0.00
2013-2-16,41,39,36,22,20,18,51,47,44,30.08,29.59,28,21,37,0.00
2013-2-17,39,32,28,27,17,10,83,53,39,29.86,29.50,22,8,31,0.00
2013-2-18,37,26,20,20,15,9,81,63,47,30.00,29.86,12,2,13,0.00
2013-2-19,39,24,16,20,14,9,79,66,43,29.90,29.69,7,1,13,0.00
2013-2-20,37,26,18,21,17,12,84,70,49,29.83,29.71,3,1,5,0.00
2013-2-21,34,25,17,21,16,7,92,69,43,29.89,29.83,14,2,18,0.00
2013-2-22,33,30,26,16,9,7,52,42,36,29.89,29.59,28,16,42,0.00
2013-2-23,35,31,27,22,14,7,63,48,40,29.91,29.47,25,12,35,0.00
2013-2-24,38,30,21,13,9,6,57,42,27,30.09,29.91,22,7,27,0.00
2013-2-25,33,29,25,13,10,6,46,43,39,29.93,29.72,26,19,40,0.00
2013-2-26,37,30,26,11,7,5,46,38,29,30.13,29.84,14,8,21,0.00
2013-2-27,36,30,24,13,9,5,46,41,35,30.16,30.10,20,15,29,0.00
2013-2-28,40,33,27,17,12,5,48,40,33,30.21,30.11,22,16,37,0.00
2013-3-1,51,44,34,27,24,16,49,44,39,30.18,30.07,24,14,35,0.00
2013-3-2,51,46,42,28,26,24,49,45,41,30.10,29.68,22,17,40,0.00
2013-3-3,48,39,22,29,21,4,80,50,35,29.76,29.28,36,13,48,0.00
2013-3-4,33,22,12,10,6,3,71,51,36,30.29,29.75,21,8,27,0.00
2013-3-5,40,28,10,13,8,3,75,45,26,30.27,29.95,20,10,29,0.00
2013-3-6,48,33,20,31,20,11,79,59,40,29.95,29.62,19,7,26,0.02
2013-3-7,44,38,33,23,15,12,53,39,28,29.89,29.67,19,9,30,0.01
2013-3-8,49,35,28,31,24,13,88,67,39,29.86,29.69,12,2,13,0.01
2013-3-9,42,34,25,27,15,10,83,47,34,30.15,29.79,15,5,22,0.00
2013-3-10,53,42,31,20,13,7,44,31,20,30.12,29.81,20,11,39,0.00
2013-3-11,43,36,22,24,17,9,82,49,25,30.15,29.79,21,8,43,0.03
2013-3-12,45,32,16,28,18,10,82,60,39,30.18,30.01,21,10,41,0.00
2013-3-13,57,50,45,29,27,26,49,41,31,30.02,29.88,22,16,40,0.00
2013-3-14,64,56,51,31,28,24,45,36,26,29.93,29.64,20,13,39,0.00
2013-3-15,61,53,39,29,26,19,61,35,21,29.74,29.58,20,10,43,0.00
2013-3-16,49,42,34,29,22,15,69,45,28,29.74,29.44,17,4,30,0.00
2013-3-17,44,32,26,29,17,4,83,53,30,29.78,29.24,23,11,49,0.00
2013-3-18,34,28,24,20,10,4,78,48,29,29.90,29.77,18,9,28,0.00
2013-3-19,45,32,24,19,9,-1,77,43,17,30.16,29.89,15,6,27,0.00
2013-3-20,47,41,24,29,18,0,61,41,20,30.08,29.36,27,16,49,0.00
2013-3-21,46,34,26,29,18,7,83,54,41,29.77,29.33,24,13,40,0.00
2013-3-22,30,23,17,18,8,1,84,55,34,30.11,29.78,13,4,23,0.01
2013-3-23,28,19,10,18,9,4,81,65,38,30.28,30.11,13,2,25,0.00
2013-3-24,35,22,13,8,3,-1,72,45,26,30.28,30.24,11,4,24,0.00
2013-3-25,45,30,17,10,3,-1,49,32,20,30.24,29.96,17,7,30,0.00
2013-3-26,50,39,33,22,14,1,52,37,24,29.97,29.78,16,7,30,0.00
2013-3-27,51,42,33,27,21,17,52,44,33,29.87,29.80,17,9,31,0.00
2013-3-28,58,48,39,26,23,20,51,39,27,29.89,29.78,16,7,26,0.00
2013-3-29,54,46,39,38,28,19,85,53,30,29.96,29.82,19,5,26,0.17
2013-3-30,54,45,37,35,26,20,84,49,32,30.05,29.89,15,7,27,0.03
2013-3-31,63,50,36,29,24,20,56,36,25,29.89,29.78,19,7,34,0.00
2013-4-1,58,42,29,26,22,18,73,47,26,29.93,29.86,5,2,8,0.00
2013-4-2,70,49,31,30,22,18,61,39,20,29.91,29.72,5,2,10,0.00
2013-4-3,58,52,41,31,26,21,59,37,25,29.83,29.71,19,6,20,0.00
2013-4-4,63,50,36,36,31,27,68,49,33,29.82,29.53,15,4,19,0.00
2013-4-5,56,49,42,36,33,29,80,54,43,29.62,29.41,17,10,23,0.17
2013-4-6,54,47,42,34,29,25,71,49,38,29.66,29.55,27,10,35,0.00
2013-4-7,51,42,34,34,31,27,86,69,41,29.58,29.34,17,6,23,0.11
2013-4-8,37,22,15,33,18,10,88,83,75,30.26,29.48,4,1,11,0.22
2013-4-9,32,22,14,20,14,9,84,71,56,30.45,30.32,2,1,5,0.10
2013-4-10,49,33,14,33,22,9,83,64,49,30.31,29.72,9,2,13,0.02
2013-4-11,53,44,34,34,26,18,83,54,27,29.76,29.63,15,6,24,0.08
2013-4-12,53,39,31,29,22,15,82,51,34,29.86,29.48,11,4,16,0.00
2013-4-13,47,38,30,36,25,7,88,60,31,29.48,29.15,22,11,32,0.13
2013-4-14,38,31,24,22,14,8,85,50,35,29.81,29.47,17,8,29,0.01
2013-4-15,31,24,17,23,16,13,86,73,56,30.09,29.80,5,1,8,0.01
2013-4-16,30,22,18,21,16,12,84,77,64,30.25,30.04,3,0,5,0.24
2013-4-17,31,23,15,21,15,10,92,74,51,30.32,30.24,4,1,6,0.03
2013-4-18,47,34,18,21,15,9,80,48,33,30.27,30.01,14,6,20,0.00
2013-4-19,47,42,39,30,22,17,59,45,38,30.01,29.62,19,12,28,0.00
2013-4-20,52,45,39,31,27,22,74,48,34,29.77,29.64,19,9,31,0.00
2013-4-21,41,31,22,31,24,18,86,76,47,30.13,29.77,9,2,13,0.40
2013-4-22,35,23,16,21,16,8,94,75,50,30.39,30.13,5,1,6,0.24
2013-4-23,45,29,15,24,13,4,72,52,34,30.36,30.10,14,4,20,0.00
2013-4-24,53,42,30,22,18,15,59,40,26,30.14,29.76,19,6,29,0.00
2013-4-25,61,51,44,24,19,15,39,28,21,29.80,29.58,20,11,33,0.00
2013-4-26,66,55,43,27,24,21,44,31,20,29.90,29.79,14,8,26,0.00
2013-4-27,68,60,54,30,27,25,34,28,23,29.86,29.53,18,11,31,0.00
2013-4-28,61,55,50,34,30,24,54,39,29,29.65,29.48,18,9,25,0.00
2013-4-29,53,46,36,35,28,21,80,52,33,29.55,29.21,24,14,39,0.13
2013-4-30,39,33,26,26,18,7,87,57,27,30.15,29.55,14,5,25,0.29
2013-5-1,42,32,24,28,22,16,88,69,40,30.55,30.15,7,2,8,0.08
2013-5-2,60,46,31,27,19,14,58,35,21,30.55,30.09,16,7,23,0.00
2013-5-3,57,50,39,38,25,15,84,42,24,30.09,29.87,18,7,23,0.09
2013-5-4,51,40,35,43,36,32,91,85,66,30.13,29.98,5,1,5,0.66
2013-5-5,64,48,39,42,37,33,91,69,39,30.11,29.83,7,1,7,0.00
2013-5-6,71,54,39,42,35,31,78,52,30,29.84,29.63,6,2,9,0.00
2013-5-7,76,61,50,42,35,31,63,40,21,29.71,29.53,16,4,21,0.00
2013-5-8,72,57,43,44,38,34,82,53,33,29.85,29.71,7,2,8,0.01
2013-5-9,71,53,44,43,36,32,68,54,30,29.92,29.82,23,5,29,0.08
2013-5-10,70,58,48,43,36,31,58,44,32,30.09,29.92,18,5,26,0.00
2013-5-11,72,56,38,39,34,29,74,45,23,30.11,29.87,13,3,14,0.00
2013-5-12,80,70,59,40,37,34,40,31,20,29.88,29.59,14,8,21,0.00
2013-5-13,82,74,67,41,38,34,33,27,21,29.62,29.29,16,10,26,0.00
2013-5-14,74,63,52,47,40,30,63,44,25,29.65,29.34,15,4,20,0.00
2013-5-15,72,58,43,43,35,29,75,45,28,29.73,29.54,23,3,25,0.03
2013-5-16,62,52,45,50,44,39,85,75,54,29.63,29.51,34,2,34,0.24
2013-5-17,57,50,46,49,45,42,90,82,66,29.66,29.58,8,1,8,0.21
2013-5-18,59,48,46,48,44,42,92,85,56,29.74,29.64,12,1,12,0.58
2013-5-19,47,44,42,43,40,38,90,87,84,29.96,29.73,10,2,10,1.25
2013-5-20,53,46,43,44,41,38,91,84,65,30.03,29.93,23,3,23,0.55
2013-5-21,66,52,39,42,37,29,87,60,33,29.97,29.66,12,2,12,0.00
2013-5-22,49,45,40,45,40,36,92,84,70,29.73,29.63,12,1,12,0.25
2013-5-23,56,48,44,51,45,42,94,88,79,29.71,29.54,12,1,12,0.31
2013-5-24,63,53,42,45,29,21,90,43,22,29.72,29.54,30,9,30,0.01
2013-5-25,66,55,45,44,35,24,66,48,38,29.71,29.59,15,2,15,0.00
2013-5-26,68,55,43,48,40,35,79,59,40,29.73,29.56,26,2,26,0.00
2013-5-27,63,54,43,41,36,30,81,54,34,29.63,29.50,38,5,38,0.01
2013-5-28,66,55,46,44,38,30,85,55,39,29.53,29.38,23,5,23,0.26
2013-5-29,49,46,44,45,43,40,91,87,76,29.50,29.43,13,1,13,0.80
2013-5-30,55,51,47,41,35,30,79,54,42,29.65,29.44,33,8,33,0.01
2013-5-31,54,50,47,36,32,27,67,50,44,30.04,29.64,33,8,33,0.00
2013-6-1,69,55,45,46,40,35,73,58,43,30.06,29.79,10,2,10,0.00
2013-6-2,70,56,46,51,45,39,83,67,48,29.79,29.39,27,2,27,0.16
2013-6-3,58,51,44,40,35,30,75,54,39,29.79,29.44,37,11,37,0.02
2013-6-4,56,46,42,43,38,36,85,72,56,30.08,29.79,17,1,17,0.01
2013-6-5,74,54,36,46,40,31,89,61,36,30.06,29.77,8,1,8,0.00
2013-6-6,77,64,52,50,43,35,71,48,35,29.79,29.68,14,3,14,0.00
2013-6-7,78,67,52,55,46,40,73,48,35,29.69,29.36,24,3,24,0.03
2013-6-8,79,66,53,48,38,28,68,38,19,29.60,29.44,32,6,32,0.04
2013-6-9,84,67,52,52,43,35,63,43,27,29.61,29.34,25,3,25,0.00
2013-6-10,76,61,50,52,46,37,87,59,40,29.55,29.41,28,2,28,0.38
2013-6-11,74,60,51,60,51,45,88,74,49,29.72,29.47,35,2,35,0.22
2013-6-12,64,54,48,54,48,42,93,80,49,29.79,29.66,31,3,31,0.12
2013-6-13,78,64,51,59,46,37,84,54,36,29.70,29.40,38,8,38,0.29
2013-6-14,60,54,51,37,32,26,58,44,35,29.84,29.54,50,13,50,0.01
2013-6-15,75,62,50,46,37,26,53,41,32,29.85,29.67,26,5,26,0.00
2013-6-16,76,60,48,50,42,32,78,53,38,29.85,29.71,24,2,24,0.11
2013-6-17,77,62,47,57,49,42,86,65,46,29.86,29.67,8,2,8,0.00
2013-6-18,87,67,51,59,48,38,86,55,22,29.67,29.35,19,2,19,0.00
2013-6-19,76,65,54,56,42,28,61,43,30,29.35,29.10,51,7,51,0.02
2013-6-20,66,56,49,35,29,25,49,35,22,29.74,29.34,35,11,35,0.00
2013-6-21,68,54,44,45,39,31,70,57,40,29.79,29.71,17,2,17,0.00
2013-6-22,62,53,44,47,40,35,85,62,38,29.79,29.64,32,5,32,0.06
2013-6-23,74,60,46,48,42,34,71,51,39,29.76,29.47,19,3,19,0.00
2013-6-24,81,64,50,54,45,35,70,50,35,29.47,29.28,31,3,31,0.00
2013-6-25,72,64,58,47,43,39,57,46,32,29.53,29.37,32,12,32,0.00
2013-6-26,76,67,59,56,48,44,73,51,34,29.76,29.52,23,8,23,0.02
2013-6-27,90,71,54,58,52,47,80,54,29,29.86,29.76,8,2,8,0.00
2013-6-28,92,74,56,57,53,49,79,51,29,29.89,29.75,8,2,8,0.00
2013-6-29,88,70,58,58,53,50,82,58,35,29.83,29.66,34,2,34,0.05
2013-6-30,90,72,55,60,54,48,79,57,33,29.79,29.71,9,2,9,0.00
2013-7-1,89,75,62,60,55,51,70,51,34,29.82,29.74,9,2,9,0.00
2013-7-2,96,79,61,56,51,46,67,41,22,29.79,29.56,9,2,9,0.00
2013-7-3,92,82,75,53,49,46,44,32,23,29.56,29.41,36,6,36,0.00
2013-7-4,91,76,64,60,52,46,61,45,33,29.50,29.33,23,3,23,0.00
2013-7-5,74,70,61,60,50,44,76,52,36,29.46,29.32,36,6,36,0.13
2013-7-6,82,67,59,56,51,45,74,57,38,29.62,29.45,17,3,17,0.01
2013-7-7,78,64,52,60,50,43,84,63,35,29.67,29.54,34,5,34,0.19
2013-7-8,88,71,61,59,49,41,70,49,23,29.67,29.46,33,6,39,0.00
2013-7-9,87,70,55,54,51,48,81,54,29,29.80,29.67,11,2,11,0.00
2013-7-10,95,74,55,52,45,35,73,42,14,29.77,29.50,16,2,16,0.00
2013-7-11,92,76,65,50,43,36,49,32,19,29.50,29.32,41,8,41,0.00
2013-7-12,86,75,66,47,43,36,48,33,18,29.51,29.42,24,8,24,0.00
2013-7-13,82,69,56,61,49,41,84,54,27,29.81,29.46,26,3,26,0.20
2013-7-14,82,67,56,58,52,49,84,61,35,29.85,29.71,12,2,12,0.00
2013-7-15,93,76,58,51,45,38,63,36,18,29.71,29.48,15,3,16,0.00
2013-7-16,71,61,56,56,49,41,81,65,36,29.90,29.55,17,1,17,0.04
2013-7-17,83,65,55,62,54,49,83,67,44,29.91,29.73,30,3,30,0.21
2013-7-18,89,74,60,57,50,38,73,46,25,29.80,29.65,17,2,17,0.00
2013-7-19,92,73,55,50,42,33,65,35,16,29.75,29.56,24,3,24,0.00
2013-7-20,92,73,57,48,39,29,53,32,13,29.66,29.46,10,2,10,0.00
2013-7-21,92,76,61,41,34,29,37,23,13,29.50,29.39,28,4,28,0.00
2013-7-22,96,75,57,48,38,27,51,30,10,29.60,29.42,24,3,24,0.00
2013-7-23,92,75,59,47,40,32,46,31,13,29.73,29.60,16,2,16,0.00
2013-7-24,93,76,60,53,47,34,59,38,22,29.73,29.50,10,2,10,0.00
2013-7-25,88,71,56,53,50,41,74,49,30,29.81,29.62,13,2,13,0.00
2013-7-26,91,71,53,55,50,47,81,53,26,29.85,29.65,10,2,10,0.00
2013-7-27,88,67,57,54,48,43,81,54,24,29.71,29.51,23,3,23,0.12
2013-7-28,75,66,58,59,49,43,79,56,41,29.60,29.48,22,4,22,0.21
2013-7-29,71,61,54,54,50,43,81,68,44,29.75,29.55,27,2,27,0.08
2013-7-30,74,63,54,57,48,42,79,60,44,29.93,29.72,30,5,30,0.18
2013-7-31,87,65,50,54,48,43,83,59,27,29.97,29.77,32,3,32,0.18
2013-8-1,78,67,59,59,52,47,74,60,45,29.78,29.51,15,2,15,0.08
2013-8-2,74,64,54,56,53,48,88,69,52,29.76,29.57,9,2,12,0.04
2013-8-3,79,65,54,57,53,49,87,66,45,29.78,29.68,9,1,9,0.00
2013-8-4,84,69,56,55,51,47,81,56,32,29.77,29.61,9,2,9,0.00
2013-8-5,87,69,57,50,46,40,74,47,25,29.69,29.51,31,3,31,0.01
2013-8-6,82,68,53,48,43,38,68,43,22,29.72,29.60,32,5,32,0.00
2013-8-7,88,70,53,49,43,33,65,42,15,29.73,29.56,15,2,15,0.00
2013-8-8,84,68,55,52,47,41,66,49,32,29.74,29.61,14,2,14,0.00
2013-8-9,73,64,56,55,50,47,73,63,49,29.78,29.73,15,2,15,0.01
2013-8-10,82,64,52,57,47,42,79,56,32,29.83,29.70,22,3,22,0.10
2013-8-11,87,68,56,52,43,39,58,43,27,29.81,29.69,36,3,36,0.06
2013-8-12,88,68,55,50,43,38,58,42,26,29.81,29.68,30,3,30,0.00
2013-8-13,83,67,55,54,44,39,64,46,32,29.82,29.72,31,4,31,0.00
2013-8-14,88,71,55,47,41,37,57,37,18,29.78,29.63,16,2,16,0.00
2013-8-15,93,74,58,49,42,37,49,34,21,29.70,29.57,15,2,15,0.00
2013-8-16,93,80,63,41,34,28,36,21,12,29.61,29.48,23,5,23,0.00
2013-8-17,93,80,67,48,39,30,38,24,15,29.57,29.46,16,3,16,0.00
2013-8-18,90,75,61,50,44,36,44,34,24,29.64,29.49,9,2,9,0.00
2013-8-19,97,79,64,50,43,37,41,29,16,29.62,29.43,14,3,14,0.00
2013-8-20,90,76,63,45,40,34,41,28,19,29.56,29.46,11,2,11,0.00
2013-8-21,87,72,61,46,40,36,46,33,21,29.75,29.56,12,2,12,0.00
2013-8-22,90,72,56,52,47,42,63,43,27,29.75,29.55,19,2,19,0.00
2013-8-23,86,73,61,54,48,44,74,43,25,29.56,29.38,24,8,31,0.06
2013-8-24,80,70,59,53,48,44,72,48,31,29.71,29.45,25,8,25,0.21
2013-8-25,90,75,66,48,45,40,46,34,20,29.64,29.51,27,9,27,0.00
2013-8-26,85,76,70,50,46,42,44,34,26,29.60,29.50,31,8,31,0.00
2013-8-27,90,76,69,51,49,46,48,38,26,29.63,29.52,28,7,28,0.00
2013-8-28,84,75,69,53,49,46,45,40,33,29.62,29.49,31,10,31,0.00
2013-8-29,84,70,60,60,50,44,84,52,31,29.79,29.61,16,4,21,0.32
2013-8-30,89,72,56,54,48,38,82,46,18,29.74,29.59,25,4,25,0.00
2013-8-31,86,71,56,49,44,40,60,40,23,29.75,29.64,8,2,10,0.00
2013-9-1,90,68,51,48,43,38,69,42,22,29.76,29.63,9,2,11,0.00
2013-9-2,80,71,62,53,45,36,52,39,29,29.64,29.52,12,4,16,0.00
2013-9-3,92,76,68,52,50,46,56,41,24,29.69,29.58,17,7,22,0.01
2013-9-4,87,70,62,61,55,51,79,61,33,29.74,29.65,16,4,23,0.25
2013-9-5,90,74,64,59,54,51,66,50,31,29.74,29.58,9,2,13,0.00
2013-9-6,89,72,60,58,50,44,70,49,25,29.68,29.57,19,5,26,0.00
2013-9-7,83,73,60,56,51,46,75,47,33,29.65,29.54,13,5,19,0.00
2013-9-8,77,62,56,58,51,45,83,68,47,29.67,29.52,15,2,17,0.08
2013-9-9,74,62,52,49,42,40,69,50,30,29.76,29.59,15,6,24,0.00
2013-9-10,82,64,50,47,42,38,66,47,28,29.84,29.74,4,2,7,0.00
2013-9-11,82,66,53,47,44,41,68,47,28,29.96,29.82,5,1,8,0.00
2013-9-12,79,64,51,50,46,43,74,53,33,29.96,29.73,5,1,7,0.00
2013-9-13,74,63,53,52,47,42,82,55,41,29.73,29.49,13,2,15,0.05
2013-9-14,66,58,54,58,53,49,92,84,70,29.85,29.57,8,2,13,1.18
2013-9-15,61,56,51,55,51,49,92,86,78,29.91,29.74,3,1,6,0.10
2013-9-16,80,67,52,51,49,47,90,56,32,29.74,29.48,17,7,23,0.01
2013-9-17,71,61,52,54,46,39,82,60,33,29.53,29.31,31,6,31,0.49
2013-9-18,59,53,45,45,38,32,79,57,43,29.75,29.33,43,11,43,0.17
2013-9-19,62,53,45,38,33,30,66,48,34,29.92,29.75,23,5,23,0.00
2013-9-20,74,58,43,41,32,25,69,41,19,29.88,29.53,29,4,29,0.00
2013-9-21,79,69,55,39,35,28,43,28,23,29.54,29.22,30,8,30,0.00
2013-9-22,73,61,53,44,38,32,58,43,28,29.34,29.17,16,2,16,0.00
2013-9-23,63,57,50,40,34,31,67,42,31,29.64,29.33,34,11,34,0.00
2013-9-24,68,58,50,42,37,32,66,46,32,29.67,29.37,29,10,29,0.06
2013-9-25,57,46,40,40,37,34,90,72,43,29.50,29.33,17,2,17,0.28
2013-9-26,47,37,34,39,33,30,90,85,70,29.90,29.48,8,1,8,0.11
2013-9-27,49,40,32,35,29,22,90,69,40,29.90,29.78,24,4,24,0.20
2013-9-28,55,49,44,34,31,25,58,50,45,29.79,29.58,47,19,47,0.00
2013-9-29,56,54,52,39,35,30,57,48,39,29.61,29.33,56,21,56,0.00
2013-9-30,58,50,42,42,37,26,86,62,45,29.67,29.23,34,11,48,0.29
2013-10-1,57,50,44,36,31,24,60,47,40,29.75,29.64,42,10,42,0.00
2013-10-2,52,44,38,37,33,29,82,65,52,29.86,29.74,14,1,14,0.00
2013-10-3,42,33,29,35,29,-100,91,87,67,30.25,29.71,5,0,5,0.99
2013-10-4,48,33,28,31,26,20,91,78,47,30.44,30.25,14,1,14,0.12
2013-10-5,54,43,29,32,24,17,70,47,39,30.30,30.09,35,12,35,0.00
2013-10-6,63,54,46,31,29,26,50,38,29,30.10,29.82,48,17,48,0.00
2013-10-7,70,63,55,31,26,22,32,25,21,29.83,29.35,45,14,45,0.00
2013-10-8,60,49,36,36,29,22,75,48,26,29.74,29.35,22,4,22,0.00
2013-10-9,51,41,35,35,31,28,81,69,50,29.90,29.73,8,1,8,0.00
2013-10-10,59,44,33,41,35,29,92,72,50,29.73,29.53,19,1,19,0.01
2013-10-11,49,42,32,32,24,19,64,50,32,29.88,29.61,26,8,32,0.00
2013-10-12,48,37,28,34,27,19,87,69,51,30.03,29.88,12,1,17,0.03
2013-10-13,38,35,32,34,32,29,90,89,87,30.09,29.97,2,0,3,0.10
2013-10-14,37,33,31,32,30,28,91,88,80,30.35,30.09,3,0,5,0.86
2013-10-15,49,35,26,34,27,19,88,72,46,30.34,30.02,8,1,15,0.00
2013-10-16,47,40,33,30,23,17,87,51,39,30.03,29.89,18,8,28,0.00
2013-10-17,42,34,31,37,29,22,91,81,56,30.14,30.00,16,2,23,0.12
2013-10-18,50,42,32,25,22,18,61,44,34,30.15,29.86,16,9,27,0.00
2013-10-19,57,49,44,34,26,22,68,40,31,29.87,29.66,23,15,38,0.01
2013-10-20,52,43,36,36,31,26,88,64,42,29.93,29.77,9,3,10,0.17
2013-10-21,63,51,44,34,30,27,52,45,33,29.94,29.86,15,8,21,0.00
2013-10-22,70,56,47,39,29,23,46,37,23,29.91,29.78,17,8,23,0.00
2013-10-23,63,48,38,39,31,24,78,53,39,30.03,29.85,8,1,9,0.00
2013-10-24,62,44,32,41,33,28,86,68,41,30.07,29.96,3,1,6,0.00
2013-10-25,70,55,42,37,29,26,68,38,25,30.02,29.91,14,5,20,0.00
2013-10-26,66,55,41,29,26,23,56,33,23,30.02,29.73,16,8,27,0.00
2013-10-27,63,51,33,34,28,25,80,41,28,29.83,29.47,21,9,35,0.00
2013-10-28,32,24,19,27,20,16,96,86,80,30.10,29.83,2,1,4,0.24
2013-10-29,30,23,19,22,18,16,88,84,71,30.09,29.88,3,0,5,0.00
2013-10-30,48,38,24,35,26,21,89,67,43,29.88,29.71,16,5,22,0.00
2013-10-31,47,44,41,31,26,20,66,49,38,29.81,29.56,23,14,32,0.00
2013-11-1,48,43,38,25,23,19,58,45,36,29.99,29.80,21,11,34,0.00
2013-11-2,53,48,45,34,28,25,67,45,37,29.91,29.33,30,18,39,0.00
2013-11-3,44,35,31,34,20,12,84,56,37,29.76,29.32,20,9,27,0.10
2013-11-4,39,28,19,25,16,10,83,61,45,30.01,29.76,13,4,15,0.02
2013-11-5,35,29,20,14,11,8,67,47,37,30.05,29.98,27,15,40,0.00
2013-11-6,42,37,32,24,20,14,61,50,41,30.18,29.99,23,13,31,0.00
2013-11-7,49,43,32,34,28,19,68,55,46,30.16,29.47,24,13,34,0.00
2013-11-8,45,40,35,34,23,18,82,51,38,29.85,29.44,21,12,26,0.03
2013-11-9,47,39,32,26,24,21,68,54,42,30.03,29.84,18,5,25,0.00
2013-11-10,56,47,27,32,28,23,87,50,40,29.99,29.85,21,13,34,0.00
2013-11-11,41,32,26,31,26,23,90,82,67,30.42,29.99,2,0,4,0.00
2013-11-12,62,54,32,27,25,23,79,35,24,30.40,29.96,20,13,30,0.00
2013-11-13,57,51,40,30,26,20,50,38,28,29.96,29.71,17,10,27,0.00
2013-11-14,45,42,40,22,21,19,45,42,37,29.83,29.51,20,13,30,0.00
2013-11-15,41,38,34,21,18,15,57,44,37,29.51,29.17,25,16,36,0.00
2013-11-16,37,33,28,25,20,12,87,58,46,29.41,29.09,24,12,30,0.00
2013-11-17,38,33,28,19,15,10,55,47,40,29.85,29.40,18,13,28,0.00
2013-11-18,50,45,38,25,22,18,48,41,34,29.83,29.54,28,19,50,0.01
2013-11-19,49,47,44,29,27,24,51,46,39,29.54,29.36,24,17,44,0.00
2013-11-20,45,21,9,29,14,4,84,73,49,30.28,29.43,14,3,22,0.10
2013-11-21,27,14,2,15,5,-3,92,69,38,30.62,30.28,8,2,12,0.00
2013-11-22,40,28,20,16,7,1,63,43,27,30.57,30.50,12,4,18,0.00
2013-11-23,46,30,19,23,12,8,68,48,29,30.54,30.13,6,1,8,0.00
2013-11-24,55,45,36,25,15,7,43,31,23,30.13,29.86,10,4,14,0.00
2013-11-25,48,39,31,26,21,17,65,48,39,30.20,29.94,6,1,8,0.00
2013-11-26,52,46,40,24,22,20,46,38,30,30.20,29.86,24,12,34,0.00
2013-11-27,56,45,28,26,22,19,73,42,29,29.93,29.80,23,10,33,0.00
2013-11-28,54,39,24,28,21,17,79,53,29,29.98,29.90,17,6,28,0.00
2013-11-29,50,47,43,24,22,19,44,37,32,29.92,29.79,20,16,30,0.00
2013-11-30,46,43,42,26,24,23,52,47,43,29.95,29.86,19,14,30,0.00
2013-12-1,43,41,38,32,28,24,75,59,48,29.88,29.46,26,16,37,0.06
2013-12-2,48,37,15,34,28,12,89,72,48,29.55,29.25,19,8,25,0.48
2013-12-3,15,9,2,11,3,-3,86,77,59,30.19,29.54,4,1,5,0.07
2013-12-4,12,1,-6,1,-6,-13,79,72,56,30.36,30.19,2,0,3,0.02
2013-12-5,7,-6,-11,-4,-13,-17,84,71,55,30.52,30.34,1,0,3,0.00
2013-12-6,1,-11,-16,-11,-19,-22,86,69,55,30.66,30.51,1,0,1,0.00
2013-12-7,-8,-16,-20,-18,-23,-26,74,69,59,30.64,30.35,1,0,2,0.00
2013-12-8,13,4,-16,-1,-8,-23,86,57,43,30.35,30.23,18,6,28,0.00
2013-12-9,17,12,6,0,-4,-12,58,48,41,30.24,30.06,34,25,52,0.04
2013-12-10,22,18,14,9,2,-4,77,49,42,30.30,30.01,35,20,48,0.06
2013-12-11,34,27,21,12,6,2,43,41,35,30.27,30.14,28,22,39,0.00
2013-12-12,42,37,31,17,14,11,44,40,35,30.19,29.82,28,20,41,0.00
2013-12-13,39,36,34,20,16,13,49,44,40,30.07,29.78,21,12,29,0.00
2013-12-14,42,37,34,22,18,15,50,45,42,30.08,29.95,27,21,40,0.00
2013-12-15,44,41,39,22,19,18,47,42,36,29.96,29.78,32,26,45,0.02
2013-12-16,52,43,37,20,18,15,45,37,26,30.07,29.79,35,20,50,0.02
2013-12-17,47,44,40,20,18,16,42,35,30,30.08,29.64,34,26,56,0.01
2013-12-18,46,42,28,23,20,18,81,42,32,29.65,29.47,29,16,45,0.00
2013-12-19,28,12,3,23,6,-3,86,77,59,30.03,29.55,5,0,10,0.00
2013-12-20,28,25,18,8,4,-5,62,40,25,29.97,29.46,28,18,39,0.00
2013-12-21,31,27,24,17,12,5,72,55,42,29.88,29.45,26,8,33,0.00
2013-12-22,31,19,11,18,12,6,86,74,50,30.23,29.83,13,3,20,0.00
2013-12-23,42,38,19,30,22,13,85,54,48,30.21,29.69,28,19,39,0.04
2013-12-24,35,33,30,30,15,11,87,48,41,30.22,29.79,21,12,33,0.02
2013-12-25,45,34,29,15,12,10,46,39,25,30.24,30.05,28,20,40,0.00
2013-12-26,51,43,34,27,21,14,50,42,38,30.12,29.95,25,18,36,0.00
2013-12-27,50,45,40,24,19,14,41,34,28,30.00,29.69,29,22,53,0.01
2013-12-28,45,29,16,25,15,11,84,60,29,30.19,29.66,24,7,32,0.00
2013-12-29,36,32,27,20,13,9,65,47,35,30.20,29.82,29,16,47,0.00
2013-12-30,38,36,32,22,18,16,64,48,42,30.05,29.78,28,16,45,0.00
2013-12-31,41,36,32,29,23,18,89,61,47,29.90,29.72,28,16,41,0.00
2014-1-1,36,32,26,26,18,12,84,57,39,30.22,29.89,20,8,25,0.05
2014-1-2,42,36,30,24,18,12,54,48,37,30.08,29.67,28,22,45,0.00